sensor_id;sensor_type;location;lat;lon;timestamp;P1;P4;P2;P0;N10;N4;N25;N1;N05;TS
67700;SPS30;55380;54.156;18.708;2023-02-19T00:00:00;4.5;;3.5;2.3;;;;;;
67700;SPS30;55380;54.156;18.708;2023-02-19T00:02:00;4.4;;3.3;2.2;;;;;;
67700;SPS30;55380;54.156;18.708;2023-02-19T00:04:01;5.1;;3.9;2.6;;;;;;
67700;SPS30;55380;54.156;18.708;2023-02-19T00:06:00;4.8;;3.8;2.6;;;;;;
67700;SPS30;55380;54.156;18.708;2023-02-19T00:08:00;4.0;;3.2;2.2;;;;;;
67700;SPS30;55380;54.156;18.708;2023-02-19T00:10:00;4.5;;3.7;2.6;;;;;;
67700;SPS30;55380;54.156;18.708;2023-02-19T00:12:00;4.0;;3.3;2.3;;;;;;
67700;SPS30;55380;54.156;18.708;2023-02-19T00:14:00;4.1;;3.3;2.3;;;;;;
67700;SPS30;55380;54.156;18.708;2023-02-19T00:16:04;4.5;;3.5;2.4;;;;;;
67700;SPS30;55380;54.156;18.708;2023-02-19T00:18:00;3.8;;3.0;2.1;;;;;;
67700;SPS30;55380;54.156;18.708;2023-02-19T00:20:00;4.2;;3.3;2.3;;;;;;
67700;SPS30;55380;54.156;18.708;2023-02-19T00:22:00;4.3;;3.4;2.3;;;;;;
67700;SPS30;55380;54.156;18.708;2023-02-19T00:24:01;4.6;;3.6;2.4;;;;;;
67700;SPS30;55380;54.156;18.708;2023-02-19T00:26:00;4.0;;3.2;2.2;;;;;;
67700;SPS30;55380;54.156;18.708;2023-02-19T00:28:00;4.4;;3.5;2.3;;;;;;
67700;SPS30;55380;54.156;18.708;2023-02-19T00:30:00;4.5;;3.5;2.4;;;;;;
67700;SPS30;55380;54.156;18.708;2023-02-19T00:32:00;4.6;;3.6;2.5;;;;;;
67700;SPS30;55380;54.156;18.708;2023-02-19T00:34:01;5.2;;4.0;2.7;;;;;;
67700;SPS30;55380;54.156;18.708;2023-02-19T00:36:00;5.4;;4.2;2.8;;;;;;
67700;SPS30;55380;54.156;18.708;2023-02-19T00:38:00;5.1;;4.0;2.7;;;;;;
67700;SPS30;55380;54.156;18.708;2023-02-19T00:40:00;5.6;;4.3;2.8;;;;;;
67700;SPS30;55380;54.156;18.708;2023-02-19T00:42:00;4.7;;3.6;2.3;;;;;;
67700;SPS30;55380;54.156;18.708;2023-02-19T00:44:01;5.0;;3.7;2.3;;;;;;
67700;SPS30;55380;54.156;18.708;2023-02-19T00:46:00;5.5;;4.1;2.5;;;;;;
67700;SPS30;55380;54.156;18.708;2023-02-19T00:48:00;5.1;;3.8;2.3;;;;;;
67700;SPS30;55380;54.156;18.708;2023-02-19T00:50:00;5.1;;3.8;2.4;;;;;;
67700;SPS30;55380;54.156;18.708;2023-02-19T00:52:00;5.4;;4.1;2.5;;;;;;
67700;SPS30;55380;54.156;18.708;2023-02-19T00:54:00;5.4;;4.0;2.3;;;;;;
67700;SPS30;55380;54.156;18.708;2023-02-19T00:56:00;5.2;;3.9;2.4;;;;;;
67700;SPS30;55380;54.156;18.708;2023-02-19T00:58:00;4.1;;3.1;2.0;;;;;;
67700;SPS30;55380;54.156;18.708;2023-02-19T01:00:00;4.5;;3.5;2.4;;;;;;
67700;SPS30;55380;54.156;18.708;2023-02-19T01:02:00;4.7;;3.6;2.4;;;;;;
67700;SPS30;55380;54.156;18.708;2023-02-19T01:04:00;4.4;;3.3;2.2;;;;;;
67700;SPS30;55380;54.156;18.708;2023-02-19T01:06:00;4.5;;3.4;2.1;;;;;;
67700;SPS30;55380;54.156;18.708;2023-02-19T01:08:00;4.2;;3.2;2.0;;;;;;
67700;SPS30;55380;54.156;18.708;2023-02-19T01:10:00;4.3;;3.3;2.1;;;;;;
67700;SPS30;55380;54.156;18.708;2023-02-19T01:12:00;4.5;;3.4;2.2;;;;;;
67700;SPS30;55380;54.156;18.708;2023-02-19T01:14:00;4.0;;3.0;2.0;;;;;;
67700;SPS30;55380;54.156;18.708;2023-02-19T01:16:01;4.3;;3.3;2.2;;;;;;
67700;SPS30;55380;54.156;18.708;2023-02-19T01:18:00;3.6;;2.8;1.9;;;;;;
67700;SPS30;55380;54.156;18.708;2023-02-19T01:20:00;4.1;;3.2;2.0;;;;;;
67700;SPS30;55380;54.156;18.708;2023-02-19T01:22:00;5.0;;3.8;2.4;;;;;;
67700;SPS30;55380;54.156;18.708;2023-02-19T01:24:00;4.5;;3.4;2.1;;;;;;
67700;SPS30;55380;54.156;18.708;2023-02-19T01:26:02;4.1;;3.2;2.1;;;;;;
67700;SPS30;55380;54.156;18.708;2023-02-19T01:28:00;4.3;;3.3;2.2;;;;;;
67700;SPS30;55380;54.156;18.708;2023-02-19T01:30:00;4.0;;3.1;2.0;;;;;;
67700;SPS30;55380;54.156;18.708;2023-02-19T01:32:00;4.2;;3.2;2.1;;;;;;
67700;SPS30;55380;54.156;18.708;2023-02-19T01:34:01;4.6;;3.5;2.2;;;;;;
67700;SPS30;55380;54.156;18.708;2023-02-19T01:36:01;5.0;;3.7;2.3;;;;;;
67700;SPS30;55380;54.156;18.708;2023-02-19T01:38:00;4.7;;3.5;2.2;;;;;;
67700;SPS30;55380;54.156;18.708;2023-02-19T01:40:00;4.6;;3.4;2.1;;;;;;
67700;SPS30;55380;54.156;18.708;2023-02-19T01:42:00;4.9;;3.7;2.3;;;;;;
67700;SPS30;55380;54.156;18.708;2023-02-19T01:44:01;4.8;;3.6;2.4;;;;;;
67700;SPS30;55380;54.156;18.708;2023-02-19T01:46:00;4.4;;3.4;2.1;;;;;;
67700;SPS30;55380;54.156;18.708;2023-02-19T01:48:01;4.1;;3.1;2.1;;;;;;
67700;SPS30;55380;54.156;18.708;2023-02-19T01:50:00;4.3;;3.4;2.3;;;;;;
67700;SPS30;55380;54.156;18.708;2023-02-19T01:52:01;4.4;;3.5;2.3;;;;;;
67700;SPS30;55380;54.156;18.708;2023-02-19T01:54:01;4.2;;3.3;2.2;;;;;;
67700;SPS30;55380;54.156;18.708;2023-02-19T01:56:00;4.2;;3.3;2.2;;;;;;
67700;SPS30;55380;54.156;18.708;2023-02-19T01:58:00;3.9;;3.0;2.0;;;;;;
67700;SPS30;55380;54.156;18.708;2023-02-19T02:00:01;4.0;;3.0;1.9;;;;;;
67700;SPS30;55380;54.156;18.708;2023-02-19T02:02:00;3.6;;2.8;1.8;;;;;;
67700;SPS30;55380;54.156;18.708;2023-02-19T02:04:00;3.6;;2.8;1.9;;;;;;
67700;SPS30;55380;54.156;18.708;2023-02-19T02:06:01;3.4;;2.7;1.9;;;;;;
67700;SPS30;55380;54.156;18.708;2023-02-19T02:08:01;3.7;;2.9;2.0;;;;;;
67700;SPS30;55380;54.156;18.708;2023-02-19T02:10:00;3.7;;2.9;1.9;;;;;;
67700;SPS30;55380;54.156;18.708;2023-02-19T02:12:00;3.4;;2.6;1.7;;;;;;
67700;SPS30;55380;54.156;18.708;2023-02-19T02:14:01;4.0;;3.1;2.0;;;;;;
67700;SPS30;55380;54.156;18.708;2023-02-19T02:16:03;3.8;;2.9;1.9;;;;;;
67700;SPS30;55380;54.156;18.708;2023-02-19T02:18:01;3.6;;2.8;1.9;;;;;;
67700;SPS30;55380;54.156;18.708;2023-02-19T02:20:03;3.5;;2.8;1.9;;;;;;
67700;SPS30;55380;54.156;18.708;2023-02-19T02:22:02;3.7;;2.9;2.0;;;;;;
67700;SPS30;55380;54.156;18.708;2023-02-19T02:24:05;3.5;;2.7;1.9;;;;;;
67700;SPS30;55380;54.156;18.708;2023-02-19T02:26:06;3.5;;2.7;1.9;;;;;;
67700;SPS30;55380;54.156;18.708;2023-02-19T02:28:05;3.6;;2.9;2.0;;;;;;
67700;SPS30;55380;54.156;18.708;2023-02-19T02:30:04;3.2;;2.5;1.7;;;;;;
67700;SPS30;55380;54.156;18.708;2023-02-19T02:32:01;3.7;;2.9;1.9;;;;;;
67700;SPS30;55380;54.156;18.708;2023-02-19T02:34:03;3.8;;2.9;1.8;;;;;;
67700;SPS30;55380;54.156;18.708;2023-02-19T02:36:02;4.2;;3.2;2.0;;;;;;
67700;SPS30;55380;54.156;18.708;2023-02-19T02:38:01;4.0;;3.1;2.0;;;;;;
67700;SPS30;55380;54.156;18.708;2023-02-19T02:40:00;3.7;;2.8;1.8;;;;;;
67700;SPS30;55380;54.156;18.708;2023-02-19T02:42:00;3.9;;3.0;2.0;;;;;;
67700;SPS30;55380;54.156;18.708;2023-02-19T02:44:00;3.6;;2.8;1.9;;;;;;
67700;SPS30;55380;54.156;18.708;2023-02-19T02:46:00;3.9;;3.1;2.0;;;;;;
67700;SPS30;55380;54.156;18.708;2023-02-19T02:48:01;3.3;;2.5;1.6;;;;;;
67700;SPS30;55380;54.156;18.708;2023-02-19T02:50:00;3.4;;2.6;1.6;;;;;;
67700;SPS30;55380;54.156;18.708;2023-02-19T02:52:00;4.1;;3.1;1.9;;;;;;
67700;SPS30;55380;54.156;18.708;2023-02-19T02:54:01;3.6;;2.7;1.8;;;;;;
67700;SPS30;55380;54.156;18.708;2023-02-19T02:56:00;3.7;;2.8;1.8;;;;;;
67700;SPS30;55380;54.156;18.708;2023-02-19T02:58:00;3.8;;2.9;1.9;;;;;;
67700;SPS30;55380;54.156;18.708;2023-02-19T03:00:00;3.7;;2.8;1.8;;;;;;
67700;SPS30;55380;54.156;18.708;2023-02-19T03:02:01;3.5;;2.7;1.8;;;;;;
67700;SPS30;55380;54.156;18.708;2023-02-19T03:04:02;3.2;;2.5;1.6;;;;;;
67700;SPS30;55380;54.156;18.708;2023-02-19T03:06:01;3.8;;2.9;1.9;;;;;;
67700;SPS30;55380;54.156;18.708;2023-02-19T03:08:02;4.0;;3.1;1.9;;;;;;
67700;SPS30;55380;54.156;18.708;2023-02-19T03:10:00;3.1;;2.4;1.5;;;;;;
67700;SPS30;55380;54.156;18.708;2023-02-19T03:12:01;3.6;;2.7;1.7;;;;;;
67700;SPS30;55380;54.156;18.708;2023-02-19T03:14:03;3.4;;2.6;1.6;;;;;;
67700;SPS30;55380;54.156;18.708;2023-02-19T03:16:01;3.8;;2.8;1.8;;;;;;
67700;SPS30;55380;54.156;18.708;2023-02-19T03:18:01;3.8;;2.9;1.9;;;;;;
67700;SPS30;55380;54.156;18.708;2023-02-19T03:20:02;3.8;;2.9;1.9;;;;;;
67700;SPS30;55380;54.156;18.708;2023-02-19T03:22:01;3.6;;2.8;1.9;;;;;;
67700;SPS30;55380;54.156;18.708;2023-02-19T03:24:00;3.4;;2.7;1.8;;;;;;
67700;SPS30;55380;54.156;18.708;2023-02-19T03:26:00;3.6;;2.8;1.8;;;;;;
67700;SPS30;55380;54.156;18.708;2023-02-19T03:28:01;3.6;;2.8;1.8;;;;;;
67700;SPS30;55380;54.156;18.708;2023-02-19T03:30:02;3.6;;2.7;1.8;;;;;;
67700;SPS30;55380;54.156;18.708;2023-02-19T03:32:02;4.1;;3.1;2.0;;;;;;
67700;SPS30;55380;54.156;18.708;2023-02-19T03:34:01;3.8;;2.8;1.8;;;;;;
67700;SPS30;55380;54.156;18.708;2023-02-19T03:36:01;4.0;;3.0;1.9;;;;;;
67700;SPS30;55380;54.156;18.708;2023-02-19T03:38:01;3.8;;2.9;1.8;;;;;;
67700;SPS30;55380;54.156;18.708;2023-02-19T03:40:00;3.8;;2.8;1.8;;;;;;
67700;SPS30;55380;54.156;18.708;2023-02-19T03:42:01;3.9;;2.9;1.8;;;;;;
67700;SPS30;55380;54.156;18.708;2023-02-19T03:44:03;4.0;;3.0;1.8;;;;;;
67700;SPS30;55380;54.156;18.708;2023-02-19T03:46:02;4.1;;3.1;1.9;;;;;;
67700;SPS30;55380;54.156;18.708;2023-02-19T03:48:06;4.3;;3.3;2.2;;;;;;
67700;SPS30;55380;54.156;18.708;2023-02-19T03:50:00;3.6;;2.8;1.9;;;;;;
67700;SPS30;55380;54.156;18.708;2023-02-19T03:52:01;4.1;;3.1;2.1;;;;;;
67700;SPS30;55380;54.156;18.708;2023-02-19T03:54:02;3.3;;2.7;1.8;;;;;;
67700;SPS30;55380;54.156;18.708;2023-02-19T03:56:04;3.5;;2.8;2.0;;;;;;
67700;SPS30;55380;54.156;18.708;2023-02-19T03:58:02;3.3;;2.6;1.9;;;;;;
67700;SPS30;55380;54.156;18.708;2023-02-19T04:00:03;3.3;;2.6;1.8;;;;;;
67700;SPS30;55380;54.156;18.708;2023-02-19T04:02:00;3.7;;2.9;1.9;;;;;;
67700;SPS30;55380;54.156;18.708;2023-02-19T04:04:02;3.7;;2.9;2.0;;;;;;
67700;SPS30;55380;54.156;18.708;2023-02-19T04:06:01;3.9;;3.0;2.0;;;;;;
67700;SPS30;55380;54.156;18.708;2023-02-19T04:08:01;3.9;;3.1;2.1;;;;;;
67700;SPS30;55380;54.156;18.708;2023-02-19T04:10:00;4.0;;3.1;2.1;;;;;;
67700;SPS30;55380;54.156;18.708;2023-02-19T04:12:00;4.0;;3.1;2.1;;;;;;
67700;SPS30;55380;54.156;18.708;2023-02-19T04:14:01;4.3;;3.4;2.2;;;;;;
67700;SPS30;55380;54.156;18.708;2023-02-19T04:16:01;4.3;;3.3;2.3;;;;;;
67700;SPS30;55380;54.156;18.708;2023-02-19T04:18:01;3.9;;3.1;2.2;;;;;;
67700;SPS30;55380;54.156;18.708;2023-02-19T04:20:01;3.7;;3.0;2.1;;;;;;
67700;SPS30;55380;54.156;18.708;2023-02-19T04:22:00;3.9;;3.1;2.2;;;;;;
67700;SPS30;55380;54.156;18.708;2023-02-19T04:24:01;3.9;;3.1;2.2;;;;;;
67700;SPS30;55380;54.156;18.708;2023-02-19T04:26:00;3.4;;2.8;2.0;;;;;;
67700;SPS30;55380;54.156;18.708;2023-02-19T04:28:00;3.3;;2.6;1.9;;;;;;
67700;SPS30;55380;54.156;18.708;2023-02-19T04:30:00;3.3;;2.7;2.0;;;;;;
67700;SPS30;55380;54.156;18.708;2023-02-19T04:32:00;4.0;;3.3;2.3;;;;;;
67700;SPS30;55380;54.156;18.708;2023-02-19T04:34:00;4.2;;3.4;2.5;;;;;;
67700;SPS30;55380;54.156;18.708;2023-02-19T04:36:00;3.9;;3.2;2.3;;;;;;
67700;SPS30;55380;54.156;18.708;2023-02-19T04:38:00;3.6;;2.9;2.2;;;;;;
67700;SPS30;55380;54.156;18.708;2023-02-19T04:40:00;3.3;;2.7;1.9;;;;;;
67700;SPS30;55380;54.156;18.708;2023-02-19T04:42:00;3.5;;2.8;2.0;;;;;;
67700;SPS30;55380;54.156;18.708;2023-02-19T04:44:00;3.4;;2.8;2.0;;;;;;
67700;SPS30;55380;54.156;18.708;2023-02-19T04:46:00;3.4;;2.7;1.9;;;;;;
67700;SPS30;55380;54.156;18.708;2023-02-19T04:48:00;3.6;;2.9;2.1;;;;;;
67700;SPS30;55380;54.156;18.708;2023-02-19T04:50:00;3.6;;3.0;2.2;;;;;;
67700;SPS30;55380;54.156;18.708;2023-02-19T04:52:00;2.9;;2.4;1.8;;;;;;
67700;SPS30;55380;54.156;18.708;2023-02-19T04:54:00;3.4;;2.7;2.0;;;;;;
67700;SPS30;55380;54.156;18.708;2023-02-19T04:56:04;3.6;;2.8;2.0;;;;;;
67700;SPS30;55380;54.156;18.708;2023-02-19T04:58:00;3.3;;2.6;1.8;;;;;;
67700;SPS30;55380;54.156;18.708;2023-02-19T05:00:00;3.5;;2.8;1.9;;;;;;
67700;SPS30;55380;54.156;18.708;2023-02-19T05:02:00;3.8;;3.0;2.1;;;;;;
67700;SPS30;55380;54.156;18.708;2023-02-19T05:04:00;3.6;;2.8;1.8;;;;;;
67700;SPS30;55380;54.156;18.708;2023-02-19T05:06:01;3.7;;2.9;1.9;;;;;;
67700;SPS30;55380;54.156;18.708;2023-02-19T05:08:00;3.3;;2.6;1.8;;;;;;
67700;SPS30;55380;54.156;18.708;2023-02-19T05:10:00;3.2;;2.6;1.8;;;;;;
67700;SPS30;55380;54.156;18.708;2023-02-19T05:12:00;2.9;;2.3;1.7;;;;;;
67700;SPS30;55380;54.156;18.708;2023-02-19T05:14:00;3.5;;2.9;2.1;;;;;;
67700;SPS30;55380;54.156;18.708;2023-02-19T05:16:00;3.0;;2.5;1.9;;;;;;
67700;SPS30;55380;54.156;18.708;2023-02-19T05:18:00;3.3;;2.7;2.0;;;;;;
67700;SPS30;55380;54.156;18.708;2023-02-19T05:20:00;3.4;;2.8;2.0;;;;;;
67700;SPS30;55380;54.156;18.708;2023-02-19T05:22:00;3.3;;2.7;1.9;;;;;;
67700;SPS30;55380;54.156;18.708;2023-02-19T05:24:00;3.2;;2.6;1.9;;;;;;
67700;SPS30;55380;54.156;18.708;2023-02-19T05:26:03;3.8;;3.0;2.1;;;;;;
67700;SPS30;55380;54.156;18.708;2023-02-19T05:28:00;3.5;;2.7;1.8;;;;;;
67700;SPS30;55380;54.156;18.708;2023-02-19T05:30:00;3.5;;2.8;1.9;;;;;;
67700;SPS30;55380;54.156;18.708;2023-02-19T05:32:00;3.2;;2.6;1.8;;;;;;
67700;SPS30;55380;54.156;18.708;2023-02-19T05:34:00;3.6;;2.8;1.9;;;;;;
67700;SPS30;55380;54.156;18.708;2023-02-19T05:36:03;3.3;;2.6;1.8;;;;;;
67700;SPS30;55380;54.156;18.708;2023-02-19T05:38:00;3.8;;2.9;2.0;;;;;;
67700;SPS30;55380;54.156;18.708;2023-02-19T05:40:00;3.7;;2.9;2.0;;;;;;
67700;SPS30;55380;54.156;18.708;2023-02-19T05:42:00;3.8;;3.0;2.0;;;;;;
67700;SPS30;55380;54.156;18.708;2023-02-19T05:44:00;3.6;;2.8;1.9;;;;;;
67700;SPS30;55380;54.156;18.708;2023-02-19T05:46:00;3.7;;2.9;2.0;;;;;;
67700;SPS30;55380;54.156;18.708;2023-02-19T05:48:00;3.2;;2.5;1.7;;;;;;
67700;SPS30;55380;54.156;18.708;2023-02-19T05:50:00;3.6;;2.9;2.0;;;;;;
67700;SPS30;55380;54.156;18.708;2023-02-19T05:52:00;3.1;;2.5;1.8;;;;;;
67700;SPS30;55380;54.156;18.708;2023-02-19T05:54:00;3.3;;2.7;2.0;;;;;;
67700;SPS30;55380;54.156;18.708;2023-02-19T05:56:00;3.3;;2.7;1.9;;;;;;
67700;SPS30;55380;54.156;18.708;2023-02-19T05:58:00;3.2;;2.6;1.9;;;;;;
67700;SPS30;55380;54.156;18.708;2023-02-19T06:00:00;3.4;;2.8;2.0;;;;;;
67700;SPS30;55380;54.156;18.708;2023-02-19T06:02:00;3.2;;2.6;1.8;;;;;;
67700;SPS30;55380;54.156;18.708;2023-02-19T06:04:00;3.3;;2.7;1.9;;;;;;
67700;SPS30;55380;54.156;18.708;2023-02-19T06:06:02;3.5;;2.8;2.0;;;;;;
67700;SPS30;55380;54.156;18.708;2023-02-19T06:08:00;3.6;;2.9;2.1;;;;;;
67700;SPS30;55380;54.156;18.708;2023-02-19T06:10:00;3.3;;2.7;2.0;;;;;;
67700;SPS30;55380;54.156;18.708;2023-02-19T06:12:00;3.6;;3.0;2.2;;;;;;
67700;SPS30;55380;54.156;18.708;2023-02-19T06:14:00;3.7;;3.0;2.1;;;;;;
67700;SPS30;55380;54.156;18.708;2023-02-19T06:16:02;3.9;;3.1;2.2;;;;;;
67700;SPS30;55380;54.156;18.708;2023-02-19T06:18:00;3.6;;2.9;2.0;;;;;;
67700;SPS30;55380;54.156;18.708;2023-02-19T06:20:00;4.0;;3.2;2.3;;;;;;
67700;SPS30;55380;54.156;18.708;2023-02-19T06:22:00;4.2;;3.3;2.4;;;;;;
67700;SPS30;55380;54.156;18.708;2023-02-19T06:24:03;3.8;;3.0;2.1;;;;;;
67700;SPS30;55380;54.156;18.708;2023-02-19T06:26:05;3.3;;2.8;2.0;;;;;;
67700;SPS30;55380;54.156;18.708;2023-02-19T06:28:00;3.4;;2.8;2.1;;;;;;
67700;SPS30;55380;54.156;18.708;2023-02-19T06:30:00;3.6;;3.0;2.2;;;;;;
67700;SPS30;55380;54.156;18.708;2023-02-19T06:32:00;3.7;;3.0;2.2;;;;;;
67700;SPS30;55380;54.156;18.708;2023-02-19T06:34:02;3.8;;3.1;2.3;;;;;;
67700;SPS30;55380;54.156;18.708;2023-02-19T06:36:01;3.8;;3.1;2.3;;;;;;
67700;SPS30;55380;54.156;18.708;2023-02-19T06:38:00;3.7;;3.0;2.1;;;;;;
67700;SPS30;55380;54.156;18.708;2023-02-19T06:40:00;4.0;;3.2;2.3;;;;;;
67700;SPS30;55380;54.156;18.708;2023-02-19T06:42:00;4.0;;3.2;2.3;;;;;;
67700;SPS30;55380;54.156;18.708;2023-02-19T06:44:00;4.2;;3.4;2.4;;;;;;
67700;SPS30;55380;54.156;18.708;2023-02-19T06:46:01;3.5;;2.9;2.1;;;;;;
67700;SPS30;55380;54.156;18.708;2023-02-19T06:48:00;3.8;;3.1;2.3;;;;;;
67700;SPS30;55380;54.156;18.708;2023-02-19T06:50:00;3.8;;3.1;2.2;;;;;;
67700;SPS30;55380;54.156;18.708;2023-02-19T06:52:00;3.9;;3.1;2.2;;;;;;
67700;SPS30;55380;54.156;18.708;2023-02-19T06:54:00;4.1;;3.4;2.4;;;;;;
67700;SPS30;55380;54.156;18.708;2023-02-19T06:56:02;3.8;;3.1;2.2;;;;;;
67700;SPS30;55380;54.156;18.708;2023-02-19T06:58:00;4.3;;3.4;2.4;;;;;;
67700;SPS30;55380;54.156;18.708;2023-02-19T07:00:00;3.9;;3.1;2.2;;;;;;
67700;SPS30;55380;54.156;18.708;2023-02-19T07:02:00;3.9;;3.2;2.3;;;;;;
67700;SPS30;55380;54.156;18.708;2023-02-19T07:04:00;3.6;;3.0;2.2;;;;;;
67700;SPS30;55380;54.156;18.708;2023-02-19T07:06:00;3.8;;3.1;2.2;;;;;;
67700;SPS30;55380;54.156;18.708;2023-02-19T07:08:00;4.3;;3.4;2.4;;;;;;
67700;SPS30;55380;54.156;18.708;2023-02-19T07:10:00;4.1;;3.2;2.3;;;;;;
67700;SPS30;55380;54.156;18.708;2023-02-19T07:12:00;4.2;;3.4;2.4;;;;;;
67700;SPS30;55380;54.156;18.708;2023-02-19T07:14:01;3.8;;3.0;2.1;;;;;;
67700;SPS30;55380;54.156;18.708;2023-02-19T07:16:01;4.0;;3.2;2.3;;;;;;
67700;SPS30;55380;54.156;18.708;2023-02-19T07:18:00;4.0;;3.2;2.3;;;;;;
67700;SPS30;55380;54.156;18.708;2023-02-19T07:20:00;3.9;;3.1;2.2;;;;;;
67700;SPS30;55380;54.156;18.708;2023-02-19T07:22:00;3.5;;2.8;2.1;;;;;;
67700;SPS30;55380;54.156;18.708;2023-02-19T07:24:00;3.7;;2.9;2.0;;;;;;
67700;SPS30;55380;54.156;18.708;2023-02-19T07:26:00;4.0;;3.2;2.3;;;;;;
67700;SPS30;55380;54.156;18.708;2023-02-19T07:28:00;3.7;;3.0;2.1;;;;;;
67700;SPS30;55380;54.156;18.708;2023-02-19T07:30:00;3.8;;3.1;2.1;;;;;;
67700;SPS30;55380;54.156;18.708;2023-02-19T07:32:00;3.9;;3.1;2.2;;;;;;
67700;SPS30;55380;54.156;18.708;2023-02-19T07:34:00;3.3;;2.7;1.9;;;;;;
67700;SPS30;55380;54.156;18.708;2023-02-19T07:36:00;4.1;;3.4;2.5;;;;;;
67700;SPS30;55380;54.156;18.708;2023-02-19T07:38:00;3.4;;2.7;2.0;;;;;;
67700;SPS30;55380;54.156;18.708;2023-02-19T07:40:00;3.4;;2.8;2.1;;;;;;
67700;SPS30;55380;54.156;18.708;2023-02-19T07:42:00;2.9;;2.4;1.8;;;;;;
67700;SPS30;55380;54.156;18.708;2023-02-19T07:44:00;3.1;;2.5;1.8;;;;;;
67700;SPS30;55380;54.156;18.708;2023-02-19T07:46:01;3.4;;2.8;2.0;;;;;;
67700;SPS30;55380;54.156;18.708;2023-02-19T07:48:00;3.7;;3.0;2.2;;;;;;
67700;SPS30;55380;54.156;18.708;2023-02-19T07:50:00;3.4;;2.8;2.1;;;;;;
67700;SPS30;55380;54.156;18.708;2023-02-19T07:52:00;3.6;;3.0;2.2;;;;;;
67700;SPS30;55380;54.156;18.708;2023-02-19T07:54:00;3.7;;3.0;2.3;;;;;;
67700;SPS30;55380;54.156;18.708;2023-02-19T07:56:00;3.7;;3.1;2.4;;;;;;
67700;SPS30;55380;54.156;18.708;2023-02-19T07:58:00;4.0;;3.3;2.5;;;;;;
67700;SPS30;55380;54.156;18.708;2023-02-19T08:00:00;4.0;;3.2;2.3;;;;;;
67700;SPS30;55380;54.156;18.708;2023-02-19T08:02:00;4.8;;3.9;2.8;;;;;;
67700;SPS30;55380;54.156;18.708;2023-02-19T08:04:00;4.2;;3.4;2.5;;;;;;
67700;SPS30;55380;54.156;18.708;2023-02-19T08:06:00;4.5;;3.8;2.8;;;;;;
67700;SPS30;55380;54.156;18.708;2023-02-19T08:08:01;4.2;;3.5;2.6;;;;;;
67700;SPS30;55380;54.156;18.708;2023-02-19T08:10:00;4.6;;3.9;3.0;;;;;;
67700;SPS30;55380;54.156;18.708;2023-02-19T08:12:00;4.1;;3.5;2.7;;;;;;
67700;SPS30;55380;54.156;18.708;2023-02-19T08:14:00;4.3;;3.6;2.7;;;;;;
67700;SPS30;55380;54.156;18.708;2023-02-19T08:16:08;4.7;;3.8;2.8;;;;;;
67700;SPS30;55380;54.156;18.708;2023-02-19T08:18:00;4.3;;3.5;2.5;;;;;;
67700;SPS30;55380;54.156;18.708;2023-02-19T08:20:00;3.8;;3.0;2.1;;;;;;
67700;SPS30;55380;54.156;18.708;2023-02-19T08:22:00;3.7;;3.0;2.2;;;;;;
67700;SPS30;55380;54.156;18.708;2023-02-19T08:24:00;4.4;;3.6;2.6;;;;;;
67700;SPS30;55380;54.156;18.708;2023-02-19T08:26:00;4.2;;3.4;2.5;;;;;;
67700;SPS30;55380;54.156;18.708;2023-02-19T08:28:00;4.4;;3.6;2.5;;;;;;
67700;SPS30;55380;54.156;18.708;2023-02-19T08:30:00;4.3;;3.6;2.7;;;;;;
67700;SPS30;55380;54.156;18.708;2023-02-19T08:32:00;4.9;;4.2;3.2;;;;;;
67700;SPS30;55380;54.156;18.708;2023-02-19T08:34:00;4.4;;3.9;3.1;;;;;;
67700;SPS30;55380;54.156;18.708;2023-02-19T08:36:01;4.8;;4.5;4.0;;;;;;
67700;SPS30;55380;54.156;18.708;2023-02-19T08:38:00;3.9;;3.7;3.3;;;;;;
67700;SPS30;55380;54.156;18.708;2023-02-19T08:40:00;3.5;;3.3;2.9;;;;;;
67700;SPS30;55380;54.156;18.708;2023-02-19T08:42:00;4.2;;4.0;3.5;;;;;;
67700;SPS30;55380;54.156;18.708;2023-02-19T08:44:00;4.3;;4.1;3.7;;;;;;
67700;SPS30;55380;54.156;18.708;2023-02-19T08:46:00;2.6;;2.4;2.1;;;;;;
67700;SPS30;55380;54.156;18.708;2023-02-19T08:48:00;2.9;;2.6;2.2;;;;;;
67700;SPS30;55380;54.156;18.708;2023-02-19T08:50:00;3.2;;2.8;2.3;;;;;;
67700;SPS30;55380;54.156;18.708;2023-02-19T08:52:00;3.3;;2.9;2.3;;;;;;
67700;SPS30;55380;54.156;18.708;2023-02-19T08:54:01;3.4;;2.9;2.3;;;;;;
67700;SPS30;55380;54.156;18.708;2023-02-19T08:56:03;3.5;;2.9;2.2;;;;;;
67700;SPS30;55380;54.156;18.708;2023-02-19T08:58:00;6.0;;5.1;4.0;;;;;;
67700;SPS30;55380;54.156;18.708;2023-02-19T09:00:00;3.1;;2.8;2.4;;;;;;
67700;SPS30;55380;54.156;18.708;2023-02-19T09:02:00;3.0;;2.7;2.3;;;;;;
67700;SPS30;55380;54.156;18.708;2023-02-19T09:04:00;3.2;;2.8;2.3;;;;;;
67700;SPS30;55380;54.156;18.708;2023-02-19T09:06:00;3.6;;3.2;2.7;;;;;;
67700;SPS30;55380;54.156;18.708;2023-02-19T09:08:00;3.7;;3.4;2.9;;;;;;
67700;SPS30;55380;54.156;18.708;2023-02-19T09:10:00;3.5;;3.3;2.9;;;;;;
67700;SPS30;55380;54.156;18.708;2023-02-19T09:12:00;2.9;;2.6;2.3;;;;;;
67700;SPS30;55380;54.156;18.708;2023-02-19T09:14:00;2.8;;2.5;2.2;;;;;;
67700;SPS30;55380;54.156;18.708;2023-02-19T09:16:01;2.7;;2.5;2.1;;;;;;
67700;SPS30;55380;54.156;18.708;2023-02-19T09:18:00;3.1;;2.8;2.3;;;;;;
67700;SPS30;55380;54.156;18.708;2023-02-19T09:20:00;3.0;;2.6;2.1;;;;;;
67700;SPS30;55380;54.156;18.708;2023-02-19T09:22:01;2.9;;2.5;2.0;;;;;;
67700;SPS30;55380;54.156;18.708;2023-02-19T09:24:00;3.3;;2.9;2.3;;;;;;
67700;SPS30;55380;54.156;18.708;2023-02-19T09:26:00;3.4;;2.9;2.2;;;;;;
67700;SPS30;55380;54.156;18.708;2023-02-19T09:28:00;3.7;;3.1;2.4;;;;;;
67700;SPS30;55380;54.156;18.708;2023-02-19T09:30:00;3.5;;2.9;2.2;;;;;;
67700;SPS30;55380;54.156;18.708;2023-02-19T09:32:00;3.3;;2.8;2.1;;;;;;
67700;SPS30;55380;54.156;18.708;2023-02-19T09:34:00;4.0;;3.3;2.5;;;;;;
67700;SPS30;55380;54.156;18.708;2023-02-19T09:36:00;3.8;;3.1;2.3;;;;;;
67700;SPS30;55380;54.156;18.708;2023-02-19T09:38:00;3.5;;2.9;2.1;;;;;;
67700;SPS30;55380;54.156;18.708;2023-02-19T09:40:00;4.0;;3.3;2.4;;;;;;
67700;SPS30;55380;54.156;18.708;2023-02-19T09:42:01;4.7;;3.9;2.8;;;;;;
67700;SPS30;55380;54.156;18.708;2023-02-19T09:44:01;3.9;;3.2;2.4;;;;;;
67700;SPS30;55380;54.156;18.708;2023-02-19T09:46:02;3.6;;3.1;2.4;;;;;;
67700;SPS30;55380;54.156;18.708;2023-02-19T09:48:00;3.3;;2.8;2.2;;;;;;
67700;SPS30;55380;54.156;18.708;2023-02-19T09:50:01;2.9;;2.4;1.9;;;;;;
67700;SPS30;55380;54.156;18.708;2023-02-19T09:52:01;2.9;;2.5;1.9;;;;;;
67700;SPS30;55380;54.156;18.708;2023-02-19T09:54:00;3.3;;2.8;2.2;;;;;;
67700;SPS30;55380;54.156;18.708;2023-02-19T09:56:00;4.2;;3.5;2.7;;;;;;
67700;SPS30;55380;54.156;18.708;2023-02-19T09:58:01;3.9;;3.3;2.5;;;;;;
67700;SPS30;55380;54.156;18.708;2023-02-19T10:00:02;3.3;;2.8;2.1;;;;;;
67700;SPS30;55380;54.156;18.708;2023-02-19T10:02:01;3.0;;2.5;1.9;;;;;;
67700;SPS30;55380;54.156;18.708;2023-02-19T10:04:00;3.2;;2.6;1.9;;;;;;
67700;SPS30;55380;54.156;18.708;2023-02-19T10:06:01;3.5;;2.8;2.1;;;;;;
67700;SPS30;55380;54.156;18.708;2023-02-19T10:08:00;3.3;;2.7;2.0;;;;;;
67700;SPS30;55380;54.156;18.708;2023-02-19T10:10:01;2.9;;2.4;1.8;;;;;;
67700;SPS30;55380;54.156;18.708;2023-02-19T10:12:00;2.9;;2.5;1.9;;;;;;
67700;SPS30;55380;54.156;18.708;2023-02-19T10:14:01;2.2;;1.9;1.5;;;;;;
67700;SPS30;55380;54.156;18.708;2023-02-19T10:16:01;2.2;;1.9;1.5;;;;;;
67700;SPS30;55380;54.156;18.708;2023-02-19T10:18:00;2.1;;1.9;1.5;;;;;;
67700;SPS30;55380;54.156;18.708;2023-02-19T10:20:00;2.8;;2.5;2.0;;;;;;
67700;SPS30;55380;54.156;18.708;2023-02-19T10:22:01;2.4;;2.0;1.6;;;;;;
67700;SPS30;55380;54.156;18.708;2023-02-19T10:24:00;2.0;;1.8;1.4;;;;;;
67700;SPS30;55380;54.156;18.708;2023-02-19T10:26:00;2.1;;1.9;1.5;;;;;;
67700;SPS30;55380;54.156;18.708;2023-02-19T10:28:00;2.1;;1.8;1.4;;;;;;
67700;SPS30;55380;54.156;18.708;2023-02-19T10:30:00;2.5;;2.2;1.8;;;;;;
67700;SPS30;55380;54.156;18.708;2023-02-19T10:32:10;1.7;;1.5;1.2;;;;;;
67700;SPS30;55380;54.156;18.708;2023-02-19T10:34:00;2.5;;2.1;1.7;;;;;;
67700;SPS30;55380;54.156;18.708;2023-02-19T10:36:01;2.3;;2.0;1.7;;;;;;
67700;SPS30;55380;54.156;18.708;2023-02-19T10:38:00;2.0;;1.8;1.5;;;;;;
67700;SPS30;55380;54.156;18.708;2023-02-19T10:40:00;3.1;;2.8;2.3;;;;;;
67700;SPS30;55380;54.156;18.708;2023-02-19T10:42:00;1.7;;1.6;1.4;;;;;;
67700;SPS30;55380;54.156;18.708;2023-02-19T10:44:02;1.6;;1.5;1.3;;;;;;
67700;SPS30;55380;54.156;18.708;2023-02-19T10:46:01;1.7;;1.6;1.4;;;;;;
67700;SPS30;55380;54.156;18.708;2023-02-19T10:48:00;1.7;;1.5;1.3;;;;;;
67700;SPS30;55380;54.156;18.708;2023-02-19T10:50:00;1.6;;1.5;1.3;;;;;;
67700;SPS30;55380;54.156;18.708;2023-02-19T10:52:01;1.6;;1.5;1.2;;;;;;
67700;SPS30;55380;54.156;18.708;2023-02-19T10:54:02;1.7;;1.5;1.3;;;;;;
67700;SPS30;55380;54.156;18.708;2023-02-19T10:56:05;1.5;;1.3;1.1;;;;;;
67700;SPS30;55380;54.156;18.708;2023-02-19T11:00:01;1.3;;1.1;0.9;;;;;;
67700;SPS30;55380;54.156;18.708;2023-02-19T11:02:01;1.7;;1.5;1.2;;;;;;
67700;SPS30;55380;54.156;18.708;2023-02-19T11:06:01;1.4;;1.2;1.0;;;;;;
67700;SPS30;55380;54.156;18.708;2023-02-19T11:08:00;1.5;;1.3;1.1;;;;;;
67700;SPS30;55380;54.156;18.708;2023-02-19T11:10:00;1.2;;1.1;0.9;;;;;;
67700;SPS30;55380;54.156;18.708;2023-02-19T11:12:00;1.3;;1.1;1.0;;;;;;
67700;SPS30;55380;54.156;18.708;2023-02-19T11:14:01;1.5;;1.3;1.1;;;;;;